createdAt,value
2022-10-25T00:03:58.828Z,100024.38
2022-10-25T00:09:02.058Z,100014.25
2022-10-25T00:14:07.101Z,99997.38
2022-10-25T00:19:08.999Z,100023.53
2022-10-25T00:24:13.172Z,99988.97
2022-10-25T00:29:17.144Z,100023.53
2022-10-25T00:34:20.631Z,100046.31
2022-10-25T00:39:22.548Z,100038.69
2022-10-25T00:44:41.809Z,100062.31
2022-10-25T00:49:45.716Z,100063.13
2022-10-25T00:54:53.318Z,100042.06
2022-10-25T01:00:07.023Z,100057.28
2022-10-25T01:05:12.893Z,100047.97
2022-10-25T01:10:15.201Z,100049.66
2022-10-25T01:15:17.287Z,100039.56
2022-10-25T01:20:37.210Z,100040.41
2022-10-25T01:25:51.641Z,100033.63
2022-10-25T01:31:02.755Z,100010.91
2022-10-25T01:41:23.770Z,100010.03
2022-10-25T01:46:50.627Z,100020.16
2022-10-25T01:51:52.445Z,100025.22
2022-10-25T01:57:08.300Z,100029.41
2022-10-25T02:02:24.392Z,100037.00
2022-10-25T02:07:29.434Z,100019.31
2022-10-25T02:13:01.502Z,100034.50
2022-10-25T02:18:07.671Z,100031.94
2022-10-25T02:23:09.475Z,100020.16
2022-10-25T02:28:16.184Z,100033.63
2022-10-25T02:33:18.433Z,100058.09
2022-10-25T02:38:24.368Z,100046.28
2022-10-25T02:43:26.217Z,100033.66
2022-10-25T02:48:28.100Z,100042.09
2022-10-25T02:53:30.269Z,100026.06
2022-10-25T02:59:04.857Z,100007.50
2022-10-25T03:04:40.718Z,100033.66
2022-10-25T03:09:47.429Z,100033.66
2022-10-25T03:15:09.874Z,100030.28
2022-10-25T04:00:37.267Z,100035.34
2022-10-25T08:47:51.612Z,100188.41
2022-10-25T08:59:44.461Z,100193.34
2022-10-25T09:04:49.025Z,100211.78
2022-10-25T09:10:27.842Z,100215.09
2022-10-25T09:15:54.984Z,100222.59
2022-10-25T09:21:01.962Z,100209.81
2022-10-25T09:26:06.050Z,100208.03
2022-10-25T09:31:14.301Z,100202.84
2022-10-25T09:36:16.650Z,100217.09
2022-10-25T09:41:45.724Z,100217.97
2022-10-25T09:46:54.674Z,100226.28
2022-10-25T09:52:24.681Z,100220.22
2022-10-25T09:57:26.664Z,100219.34
2022-10-25T10:02:28.755Z,100222.69
2022-10-25T10:07:38.912Z,100216.75
2022-10-25T10:12:56.614Z,100234.38
2022-10-25T10:18:34.110Z,100210.66
2022-10-25T10:23:45.613Z,100218.09
2022-10-25T10:28:50.271Z,100201.91
2022-10-25T10:33:52.323Z,100215.41
2022-10-25T10:39:13.293Z,100201.84
2022-10-25T10:44:18.029Z,100208.50
2022-10-25T10:49:21.823Z,100193.97
2022-10-25T10:54:46.443Z,100183.69
2022-10-25T11:00:20.784Z,100190.28
2022-10-25T11:05:29.767Z,100216.31
2022-10-25T11:10:36.478Z,100211.09
2022-10-25T11:16:08.628Z,100197.31
2022-10-25T11:21:18.953Z,100198.78
2022-10-25T11:26:49.502Z,100182.59
2022-10-25T11:32:34.539Z,100182.41
2022-10-25T11:38:07.739Z,100182.22
2022-10-25T11:44:28.065Z,100202.38
2022-10-25T11:49:56.048Z,100193.44
2022-10-25T11:56:29.410Z,100184.00
2022-10-25T12:19:54.438Z,100178.88
2022-10-25T12:36:59.665Z,100169.56
2022-10-25T13:20:23.892Z,100169.78
2022-10-25T16:41:11.375Z,100217.63
2022-10-25T17:18:25.559Z,100225.16
2022-10-25T17:24:10.700Z,100243.91
2022-10-25T17:30:00.071Z,100235.53
2022-10-25T17:35:39.249Z,100229.66
2022-10-25T17:40:54.088Z,100235.63
2022-10-25T17:58:12.514Z,100230.81
2022-10-25T18:04:13.212Z,100251.09
2022-10-25T18:09:26.162Z,100238.50
2022-10-25T18:34:32.156Z,100252.97
2022-10-25T18:45:12.697Z,100245.44
2022-10-25T18:50:43.480Z,100242.03
2022-10-25T18:55:59.458Z,100236.97
2022-10-25T19:01:12.470Z,100242.06
2022-10-25T19:06:20.264Z,100261.47
2022-10-25T19:11:31.350Z,100247.97
2022-10-25T20:58:30.962Z,100298.63
2022-10-25T21:28:34.823Z,100298.53
2022-10-25T21:33:59.559Z,100294.16
2022-10-25T21:39:46.305Z,100299.25
2022-10-25T21:56:31.753Z,100301.53
2022-10-25T22:01:41.603Z,100292.06
2022-10-25T22:08:14.620Z,100290.28
2022-10-25T22:19:21.413Z,100284.16
2022-10-25T22:24:38.082Z,100286.66
2022-10-25T22:29:47.642Z,100295.03
2022-10-25T22:34:52.940Z,100288.28
2022-10-25T22:39:56.677Z,100298.34
2022-10-25T22:51:18.093Z,100288.19
2022-10-25T22:56:33.965Z,100286.47
2022-10-25T23:01:41.962Z,100288.06
2022-10-25T23:06:48.623Z,100282.06
2022-10-25T23:12:39.517Z,100294.66
2022-10-25T23:17:59.003Z,100304.53
2022-10-25T23:23:07.837Z,100290.13
2022-10-25T23:28:25.065Z,100296.06
2022-10-25T23:33:29.581Z,100290.88
2022-10-25T23:38:46.525Z,100285.78
2022-10-25T23:44:00.004Z,100292.44
2022-10-25T23:49:01.824Z,100277.19
2022-10-25T23:54:04.042Z,100276.22
2022-10-25T23:59:14.148Z,100267.69
